Terminal Aerodrome Forecast
Issued by NWS Cleveland, OH

Home | Current Version | Previous Version | Graphics & Text | Print | Product List | Glossary On
Versions: 1 2 3 4 5 6 7 8 9 10 11 12 13 14 15 16
000
FTUS41 KCLE 220950 AAB
TAFERI
TAF AMD
KERI 220950Z 2210/2306 34014G22KT P6SM BKN035
     FM221600 33012G18KT P6SM SCT035
     FM230000 34005KT P6SM FEW200=

USA.gov is the U.S. government's official web portal to all federal, state and local government web resources and services.